Time;durP1;ratioP1;P1;durP2;ratioP2;P2;SDS_P1;SDS_P2;PMS_P1;PMS_P2;Temp;Humidity;BMP_temperature;BMP_pressure;BME280_temperature;BME280_humidity;BME280_pressure;Samples;Min_cycle;Max_cycle;Signal;HPM_P1;HPM_P2
2022/06/04 00:00:53;;;;;;;;;6.67;6.67;;;;;19.15;67.87;100209.97;5045968;28;45665;-69
2022/06/04 00:03:20;;;;;;;;;6.33;6.00;;;;;19.13;67.87;100207.34;5044540;28;45618;-69
2022/06/04 00:05:49;;;;;;;;;7.67;7.00;;;;;19.03;67.60;100193.31;5045853;28;45469;-71
2022/06/04 00:08:15;;;;;;;;;7.67;7.33;;;;;19.14;67.79;100198.53;5046215;28;45538;-73
2022/06/04 00:16:14;;;;;;;;;8.33;6.33;;;;;19.17;68.49;100202.91;5046320;28;45471;-69
2022/06/04 00:18:41;;;;;;;;;8.33;8.33;;;;;19.17;68.58;100209.06;5046194;28;45406;-68
2022/06/04 00:21:08;;;;;;;;;7.67;7.00;;;;;19.17;68.67;100208.19;5044930;28;45554;-69
2022/06/04 00:23:34;;;;;;;;;9.33;7.00;;;;;19.14;69.25;100195.88;5044897;28;45430;-70
2022/06/04 00:26:02;;;;;;;;;10.67;8.00;;;;;19.08;68.86;100185.34;5046235;28;45544;-69
2022/06/04 00:28:28;;;;;;;;;9.00;9.00;;;;;19.22;69.21;100206.38;5045480;28;45610;-68
2022/06/04 00:30:56;;;;;;;;;10.33;10.00;;;;;19.25;69.79;100208.97;5044762;28;45455;-68
2022/06/04 00:33:22;;;;;;;;;9.00;8.67;;;;;19.25;69.68;100212.50;5041663;28;45631;-69
2022/06/04 00:35:51;;;;;;;;;10.33;8.67;;;;;19.24;68.86;100209.88;5036663;28;45418;-69
2022/06/04 00:38:20;;;;;;;;;11.33;10.33;;;;;19.22;69.53;100209.91;5036898;28;45833;-70
2022/06/04 00:41:07;;;;;;;;;7.00;7.00;;;;;19.22;69.84;100204.59;5035586;28;45370;-69
2022/06/04 00:44:01;;;;;;;;;8.33;7.33;;;;;19.22;69.90;100201.09;5037299;28;45340;-70
2022/06/04 00:46:42;;;;;;;;;10.00;9.67;;;;;19.22;70.20;100196.66;5040550;28;46115;-69
2022/06/04 00:49:21;;;;;;;;;11.67;11.00;;;;;19.19;69.81;100194.03;5040339;28;45493;-69
2022/06/04 00:51:49;;;;;;;;;9.33;8.00;;;;;19.20;70.28;100201.09;5040461;28;45398;-71
2022/06/04 00:54:16;;;;;;;;;11.33;11.00;;;;;19.21;70.86;100197.53;5040483;28;45536;-72
2022/06/04 00:57:00;;;;;;;;;9.33;8.67;;;;;19.19;70.67;100194.03;5040245;28;45266;-70
2022/06/04 00:59:44;;;;;;;;;11.00;11.00;;;;;19.18;70.24;100194.03;5040368;28;45482;-69
2022/06/04 01:02:31;;;;;;;;;8.67;8.67;;;;;19.15;70.87;100192.31;5039979;28;45414;-72
2022/06/04 01:05:31;;;;;;;;;8.67;8.33;;;;;19.14;71.00;100190.56;5040609;28;45430;-70
2022/06/04 01:08:29;;;;;;;;;10.50;10.50;;;;;19.12;71.30;100189.72;5016500;28;46319;-73
2022/06/04 01:11:32;;;;;;;;;11.33;10.33;;;;;19.08;71.32;100188.88;5011184;28;45401;-68
2022/06/04 01:14:09;;;;;;;;;9.00;8.67;;;;;19.08;71.01;100183.56;5040290;28;45375;-70
2022/06/04 01:17:05;;;;;;;;;11.33;11.00;;;;;19.08;71.63;100177.41;5040063;28;45430;-72
2022/06/04 01:19:52;;;;;;;;;11.00;11.00;;;;;19.08;71.70;100172.13;5039805;28;45303;-68
2022/06/04 01:22:35;;;;;;;;;11.00;10.67;;;;;19.07;72.05;100175.63;5039668;28;45340;-69
2022/06/04 01:25:29;;;;;;;;;11.67;11.00;;;;;19.05;72.29;100173.00;5040149;28;45481;-68
2022/06/04 01:28:11;;;;;;;;;11.33;10.00;;;;;19.04;72.79;100168.63;5040051;28;45402;-68
2022/06/04 01:30:43;;;;;;;;;9.67;9.67;;;;;19.06;72.56;100166.81;5039387;28;45529;-68
2022/06/04 01:33:21;;;;;;;;;9.67;9.33;;;;;19.10;72.21;100175.63;5039341;28;45434;-69
2022/06/04 01:36:01;;;;;;;;;9.00;8.00;;;;;19.02;72.50;100150.97;5039481;28;45470;-69
2022/06/04 01:38:31;;;;;;;;;10.67;10.00;;;;;19.03;72.15;100158.91;5039907;28;45398;-69
2022/06/04 01:41:03;;;;;;;;;9.67;9.67;;;;;19.12;72.06;100171.19;5039701;28;46029;-68
2022/06/04 01:43:46;;;;;;;;;11.00;11.00;;;;;18.98;72.07;100143.97;5039769;28;45935;-73
2022/06/04 01:46:48;;;;;;;;;10.33;9.33;;;;;19.16;72.33;100175.56;5039396;28;45285;-70
2022/06/04 01:49:56;;;;;;;;;10.33;10.33;;;;;19.18;72.41;100168.47;5039501;28;45465;-73
2022/06/04 01:52:38;;;;;;;;;12.00;11.33;;;;;19.19;71.81;100167.56;4977559;28;45547;-74
2022/06/04 01:55:18;;;;;;;;;9.33;9.33;;;;;19.20;72.31;100174.63;4977257;28;45390;-69
2022/06/04 01:57:56;;;;;;;;;10.00;9.33;;;;;19.08;72.50;100141.22;5019579;28;45521;-69
2022/06/04 02:00:38;;;;;;;;;11.67;10.33;;;;;19.23;72.58;100161.31;5039287;28;45432;-69
2022/06/04 02:03:12;;;;;;;;;10.67;10.67;;;;;19.23;72.36;100161.31;5038773;28;46086;-68
2022/06/04 02:05:44;;;;;;;;;11.00;10.00;;;;;19.25;72.51;100150.72;5039113;28;45458;-69
2022/06/04 02:08:14;;;;;;;;;9.33;8.33;;;;;19.25;72.58;100164.81;5039396;28;45574;-69
2022/06/04 02:11:11;;;;;;;;;8.33;7.67;;;;;19.24;72.21;100155.16;5039408;28;45419;-71
2022/06/04 02:13:38;;;;;;;;;10.33;10.00;;;;;19.25;72.29;100161.31;5038778;28;46394;-69
2022/06/04 02:16:15;;;;;;;;;9.67;9.33;;;;;19.23;72.91;100166.63;5039158;28;45260;-74
2022/06/04 02:18:40;;;;;;;;;7.33;7.33;;;;;19.24;73.24;100157.78;5039202;28;45337;-69
2022/06/04 02:21:06;;;;;;;;;8.00;8.00;;;;;19.23;73.26;100150.72;5039178;28;45355;-74
2022/06/04 02:23:35;;;;;;;;;10.67;10.00;;;;;19.23;73.42;100153.38;5039050;28;45351;-69
2022/06/04 02:26:01;;;;;;;;;11.33;9.67;;;;;19.15;73.59;100144.66;5039253;28;45439;-68
2022/06/04 02:28:28;;;;;;;;;9.67;9.00;;;;;19.21;73.64;100163.13;5038915;28;45760;-68
2022/06/04 02:31:18;;;;;;;;;9.67;8.00;;;;;19.19;73.50;100154.31;5038984;28;45484;-69
2022/06/04 02:33:59;;;;;;;;;11.00;9.33;;;;;19.19;73.44;100143.72;5038543;28;45559;-69
2022/06/04 02:36:31;;;;;;;;;8.67;8.67;;;;;19.09;73.42;100128.84;5038808;28;45523;-71
2022/06/04 02:39:09;;;;;;;;;9.67;9.67;;;;;19.18;72.56;100146.38;5038772;28;45493;-73
2022/06/04 02:41:59;;;;;;;;;10.67;9.67;;;;;19.16;73.00;100138.47;5039124;28;45477;-68
2022/06/04 02:44:33;;;;;;;;;10.67;10.00;;;;;19.16;72.90;100138.47;5038652;28;46214;-69
2022/06/04 02:47:29;;;;;;;;;12.00;11.33;;;;;19.13;72.96;100143.78;5037142;28;45430;-70
2022/06/04 02:50:02;;;;;;;;;10.33;10.33;;;;;19.12;73.07;100135.88;5012784;28;45596;-69
2022/06/04 02:52:30;;;;;;;;;9.33;9.00;;;;;19.13;73.14;100141.16;5038672;28;45537;-70
2022/06/04 02:55:07;;;;;;;;;10.00;10.00;;;;;19.12;72.84;100134.13;5038184;28;45432;-70
2022/06/04 02:57:37;;;;;;;;;13.00;11.33;;;;;19.01;72.82;100128.94;5038436;28;45478;-69
2022/06/04 03:00:05;;;;;;;;;9.00;8.00;;;;;19.08;73.09;100143.84;5038480;28;45433;-71
2022/06/04 03:02:34;;;;;;;;;8.00;8.00;;;;;19.09;73.25;100142.06;5038206;28;45564;-68
2022/06/04 03:05:16;;;;;;;;;11.00;10.33;;;;;19.09;73.42;100136.78;5037843;28;45261;-70
2022/06/04 03:07:46;;;;;;;;;10.67;10.00;;;;;19.08;73.47;100135.91;5037184;28;45489;-68
2022/06/04 03:10:24;;;;;;;;;8.33;8.33;;;;;19.07;73.82;100141.22;5038326;28;45471;-73
2022/06/04 03:12:51;;;;;;;;;10.00;10.00;;;;;19.06;73.46;100134.19;5038146;28;45468;-73
2022/06/04 03:15:17;;;;;;;;;9.33;8.00;;;;;19.03;73.66;100139.50;5037964;28;45370;-71
2022/06/04 03:17:44;;;;;;;;;12.00;11.67;;;;;19.03;73.45;100136.84;5038088;28;45449;-71
2022/06/04 03:20:15;;;;;;;;;12.67;10.33;;;;;19.02;73.93;100132.44;5038133;28;45402;-73
2022/06/04 03:22:41;;;;;;;;;13.00;12.00;;;;;19.02;73.84;100136.00;5038128;28;45351;-68
2022/06/04 03:25:07;;;;;;;;;10.00;9.67;;;;;18.98;74.08;100122.78;5038136;28;46375;-70
2022/06/04 03:27:33;;;;;;;;;9.67;9.33;;;;;18.99;74.30;100121.91;5037948;28;45723;-71
2022/06/04 03:29:58;;;;;;;;;12.33;12.33;;;;;19.00;74.04;100123.63;5038096;28;45351;-68
2022/06/04 03:32:24;;;;;;;;;11.00;9.67;;;;;19.00;74.60;100126.28;5038121;28;45252;-69
2022/06/04 03:34:49;;;;;;;;;12.00;9.00;;;;;19.00;74.60;100124.53;5037664;28;45470;-69
2022/06/04 03:37:16;;;;;;;;;10.33;9.67;;;;;18.99;75.02;100117.47;5037902;28;45415;-74
2022/06/04 03:39:41;;;;;;;;;9.33;9.33;;;;;18.99;74.11;100120.13;5037979;28;45437;-71
2022/06/04 03:42:07;;;;;;;;;11.33;11.00;;;;;18.86;74.45;100097.31;5038114;28;45399;-69
2022/06/04 03:44:33;;;;;;;;;11.00;10.33;;;;;19.00;74.50;100126.28;5037585;28;45300;-68
2022/06/04 03:46:59;;;;;;;;;11.00;11.00;;;;;19.01;74.50;100122.75;5037459;28;45418;-70
2022/06/04 03:49:24;;;;;;;;;11.00;11.00;;;;;18.99;74.34;100127.19;5037571;28;45533;-69
2022/06/04 03:51:50;;;;;;;;;12.00;11.67;;;;;18.97;74.41;100129.00;5038022;28;45344;-69
2022/06/04 03:54:15;;;;;;;;;12.00;12.00;;;;;18.97;74.31;100131.63;5037586;28;46137;-69
2022/06/04 03:56:41;;;;;;;;;11.67;11.33;;;;;18.97;74.55;100129.00;5037545;28;45387;-68
2022/06/04 03:59:06;;;;;;;;;11.67;11.67;;;;;18.96;74.51;100138.72;5037813;28;45648;-69
2022/06/04 04:01:33;;;;;;;;;12.00;12.00;;;;;18.98;75.04;100138.66;5037650;28;45384;-69
2022/06/04 04:04:00;;;;;;;;;12.00;11.67;;;;;18.97;74.69;100134.28;5037074;28;45394;-70
2022/06/04 04:06:32;;;;;;;;;11.00;11.00;;;;;18.97;74.76;100139.56;5037278;28;45493;-69
2022/06/04 04:08:58;;;;;;;;;11.33;11.00;;;;;18.97;74.42;100134.28;5037411;28;45426;-70
2022/06/04 04:11:27;;;;;;;;;11.67;11.33;;;;;18.77;74.56;100111.50;5037400;28;45565;-73
2022/06/04 04:13:53;;;;;;;;;13.00;11.67;;;;;18.88;75.33;100136.13;5036943;28;45254;-70
2022/06/04 04:16:21;;;;;;;;;12.00;11.33;;;;;18.94;75.64;100134.28;5037037;28;45451;-69
2022/06/04 04:18:46;;;;;;;;;13.00;11.67;;;;;18.98;75.74;100143.97;5038430;28;45386;-69
2022/06/04 04:21:15;;;;;;;;;12.00;11.33;;;;;18.98;75.54;100155.44;5045449;28;45354;-69
2022/06/04 04:23:42;;;;;;;;;12.75;12.50;;;;;18.98;75.65;100159.84;5046210;28;45913;-69
2022/06/04 04:26:09;;;;;;;;;11.67;11.33;;;;;19.00;75.45;100164.25;5046628;28;45529;-69
2022/06/04 04:28:36;;;;;;;;;10.33;10.33;;;;;19.00;75.23;100155.41;5045919;28;45956;-69
2022/06/04 04:31:02;;;;;;;;;11.00;9.67;;;;;18.96;75.67;100145.75;5044423;28;45753;-69
2022/06/04 04:33:28;;;;;;;;;12.00;12.00;;;;;18.89;76.04;100126.41;5046061;28;46141;-70
2022/06/04 04:35:54;;;;;;;;;11.00;11.00;;;;;19.03;75.45;100152.75;5045148;28;45530;-69
2022/06/04 04:38:21;;;;;;;;;15.00;12.00;;;;;19.05;75.74;100153.59;5044419;28;45613;-70
2022/06/04 04:40:48;;;;;;;;;11.33;11.33;;;;;19.05;75.31;100158.91;5047029;28;45410;-73
2022/06/04 04:43:14;;;;;;;;;10.67;10.67;;;;;19.07;75.79;100157.97;5044889;28;45353;-67
2022/06/04 04:45:44;;;;;;;;;13.33;12.67;;;;;19.09;75.92;100157.97;5046019;28;45406;-68
2022/06/04 04:48:11;;;;;;;;;12.00;11.00;;;;;19.10;75.48;100158.84;5041812;28;45501;-68
2022/06/04 04:50:39;;;;;;;;;9.00;8.67;;;;;19.07;75.44;100150.03;5045749;28;45518;-72
2022/06/04 04:53:09;;;;;;;;;12.67;12.00;;;;;19.02;75.62;100153.63;5043440;28;45280;-68
2022/06/04 04:55:35;;;;;;;;;9.33;9.33;;;;;19.05;76.12;100161.53;5044889;28;45487;-69
2022/06/04 04:58:02;;;;;;;;;9.33;9.00;;;;;19.06;76.25;100160.66;5045732;28;45572;-70
2022/06/04 05:00:28;;;;;;;;;9.67;9.00;;;;;19.05;75.64;100153.59;5045964;28;45346;-68
2022/06/04 05:02:56;;;;;;;;;11.00;9.50;;;;;19.06;75.54;100160.66;5044548;28;46449;-68
2022/06/04 05:05:22;;;;;;;;;11.00;8.33;;;;;19.01;75.26;100166.00;5043672;28;45315;-68
2022/06/04 05:07:47;;;;;;;;;8.00;8.00;;;;;19.01;75.50;100163.34;5044408;28;45507;-68
2022/06/04 05:10:13;;;;;;;;;8.67;8.00;;;;;19.04;75.89;100176.56;5045834;28;45468;-69
2022/06/04 05:12:39;;;;;;;;;12.00;11.00;;;;;18.99;75.61;100162.47;5044382;28;45446;-68
2022/06/04 05:15:05;;;;;;;;;9.33;9.33;;;;;18.98;74.95;100162.50;5044412;28;45607;-70
2022/06/04 05:17:31;;;;;;;;;8.00;8.00;;;;;18.90;75.39;100146.72;5045892;28;45487;-69
2022/06/04 05:19:57;;;;;;;;;9.33;9.33;;;;;18.97;74.97;100153.69;5044152;28;45354;-68
2022/06/04 05:22:23;;;;;;;;;9.33;8.00;;;;;18.98;75.00;100157.19;5044456;28;46089;-69
2022/06/04 05:24:48;;;;;;;;;11.67;11.67;;;;;18.97;75.60;100164.25;5051524;28;45623;-69
2022/06/04 05:27:15;;;;;;;;;10.33;10.00;;;;;18.96;74.87;100156.34;5045680;28;45322;-69
2022/06/04 05:29:41;;;;;;;;;8.67;8.67;;;;;18.97;75.05;100153.69;5045212;28;45546;-71
2022/06/04 05:32:07;;;;;;;;;12.67;12.00;;;;;18.99;75.10;100158.97;5047699;28;45403;-68
2022/06/04 05:34:33;;;;;;;;;10.33;10.33;;;;;19.00;75.31;100155.41;5048964;28;45552;-72
2022/06/04 05:37:01;;;;;;;;;10.33;9.33;;;;;19.01;74.23;100150.09;5047435;28;45506;-69
2022/06/04 05:39:29;;;;;;;;;10.67;10.67;;;;;18.84;76.11;100133.50;5047623;28;45383;-69
2022/06/04 05:41:55;;;;;;;;;12.00;12.00;;;;;18.96;75.92;100161.63;5048414;28;46256;-68
2022/06/04 05:44:20;;;;;;;;;10.67;10.00;;;;;18.97;75.43;100160.75;5047213;28;45376;-68
2022/06/04 05:46:46;;;;;;;;;12.00;11.33;;;;;18.89;74.28;100152.88;5048664;28;45493;-69
2022/06/04 05:49:13;;;;;;;;;10.33;9.67;;;;;18.96;74.46;100166.91;5050343;28;45471;-69
2022/06/04 05:51:42;;;;;;;;;11.33;11.33;;;;;18.94;74.27;100164.31;5049710;28;45710;-69
2022/06/04 05:54:08;;;;;;;;;11.00;11.00;;;;;18.95;73.63;100166.06;5050591;28;45650;-71
2022/06/04 05:56:38;;;;;;;;;9.67;9.67;;;;;18.72;73.65;100130.97;5051057;28;45384;-70
2022/06/04 05:59:07;;;;;;;;;12.00;11.00;;;;;18.90;73.64;100167.00;5051581;28;45561;-69
2022/06/04 06:01:34;;;;;;;;;13.00;12.33;;;;;18.96;73.85;100164.28;5046288;28;45465;-68
2022/06/04 06:04:00;;;;;;;;;13.00;11.67;;;;;18.98;73.66;100160.75;5047767;28;45374;-68
2022/06/04 06:06:29;;;;;;;;;14.33;13.00;;;;;19.00;74.10;100164.25;5047692;28;45507;-68
2022/06/04 06:08:56;;;;;;;;;10.67;9.33;;;;;18.99;73.60;100158.97;5046396;28;45481;-68
2022/06/04 06:11:23;;;;;;;;;12.67;11.67;;;;;18.81;74.02;100154.75;5047548;28;46195;-67
2022/06/04 06:13:50;;;;;;;;;11.67;11.67;;;;;18.93;73.73;100173.13;5047916;28;45460;-69
2022/06/04 06:16:18;;;;;;;;;13.00;12.00;;;;;18.93;73.44;100175.78;5046438;28;45426;-72
2022/06/04 06:18:44;;;;;;;;;14.00;11.00;;;;;18.93;73.50;100170.47;5047355;28;45374;-68
2022/06/04 06:21:13;;;;;;;;;14.00;13.00;;;;;19.08;74.14;100170.34;5048057;28;45506;-69
2022/06/04 06:23:40;;;;;;;;;13.33;13.33;;;;;19.21;73.38;100181.66;5048719;28;45856;-69
2022/06/04 06:26:08;;;;;;;;;11.67;11.67;;;;;19.27;72.89;100178.06;5047487;28;45388;-70
2022/06/04 06:28:36;;;;;;;;;12.00;11.67;;;;;19.33;72.75;100177.97;5048777;28;45701;-68
2022/06/04 06:31:03;;;;;;;;;13.67;12.33;;;;;19.37;72.66;100176.19;5046669;28;45970;-70
2022/06/04 06:33:29;;;;;;;;;13.33;13.33;;;;;19.32;73.43;100154.16;5046174;28;45464;-68
2022/06/04 06:35:59;;;;;;;;;14.67;13.00;;;;;19.63;72.24;100176.72;5047903;28;45320;-69
2022/06/04 06:38:26;;;;;;;;;11.33;10.33;;;;;19.82;71.65;100176.53;5047309;28;45433;-70
2022/06/04 06:40:57;;;;;;;;;14.67;13.00;;;;;19.98;71.52;100178.06;5044962;28;46436;-69
2022/06/04 06:43:23;;;;;;;;;11.33;11.00;;;;;20.09;70.36;100180.53;5046368;28;45516;-70
2022/06/04 06:45:49;;;;;;;;;10.33;10.33;;;;;20.18;69.62;100184.84;5047529;28;45476;-69
2022/06/04 06:48:15;;;;;;;;;12.00;11.33;;;;;20.21;70.05;100171.53;5045992;28;45426;-72
2022/06/04 06:50:42;;;;;;;;;10.33;10.33;;;;;20.44;69.12;100176.47;5047059;28;46016;-68
2022/06/04 06:53:08;;;;;;;;;8.67;8.67;;;;;20.57;68.61;100177.13;5050477;28;45465;-73
2022/06/04 06:55:34;;;;;;;;;11.00;10.33;;;;;20.51;68.05;100169.28;5058454;28;45526;-74
2022/06/04 06:58:00;;;;;;;;;11.67;11.00;;;;;20.56;68.46;100186.00;5058573;28;45409;-69
2022/06/04 07:00:26;;;;;;;;;13.00;13.00;;;;;20.49;69.35;100176.38;5058147;28;46110;-73
2022/06/04 07:02:52;;;;;;;;;13.00;13.00;;;;;20.69;68.95;100190.25;5058256;28;45708;-75
2022/06/04 07:05:18;;;;;;;;;12.33;11.33;;;;;20.75;68.59;100181.28;5058153;28;45394;-69
2022/06/04 07:07:43;;;;;;;;;13.00;12.00;;;;;20.83;68.25;100180.25;5058573;28;45507;-69
2022/06/04 07:10:10;;;;;;;;;15.33;14.67;;;;;21.19;67.55;100172.50;5058358;28;45476;-73
2022/06/04 07:12:36;;;;;;;;;12.33;11.67;;;;;21.54;66.82;100170.91;5058378;28;45290;-74
2022/06/04 07:15:03;;;;;;;;;12.00;10.33;;;;;21.91;66.70;100180.75;5058178;28;45356;-67
2022/06/04 07:17:29;;;;;;;;;10.67;10.67;;;;;22.26;64.99;100176.41;5058182;28;45330;-69
2022/06/04 07:19:54;;;;;;;;;10.67;9.67;;;;;22.39;64.37;100183.19;5057356;28;45750;-74
2022/06/04 07:22:20;;;;;;;;;11.33;11.00;;;;;22.30;63.64;100177.22;5058190;28;45210;-69
2022/06/04 07:24:45;;;;;;;;;15.00;13.33;;;;;22.41;64.01;100186.69;5057979;28;45295;-70
2022/06/04 07:27:11;;;;;;;;;11.67;10.33;;;;;22.52;63.49;100186.44;5058371;28;45476;-70
2022/06/04 07:29:37;;;;;;;;;10.33;10.00;;;;;22.61;63.13;100180.00;5057787;28;46170;-72
2022/06/04 07:32:04;;;;;;;;;10.33;10.00;;;;;22.82;62.68;100179.47;5057439;28;45457;-68
2022/06/04 07:34:31;;;;;;;;;9.33;9.33;;;;;22.85;62.30;100173.16;5057954;28;45244;-69
2022/06/04 07:36:56;;;;;;;;;9.33;8.67;;;;;22.77;62.54;100169.84;5057926;28;45327;-68
2022/06/04 07:39:22;;;;;;;;;9.00;9.00;;;;;22.71;63.24;100165.53;5057294;28;46191;-68
2022/06/04 07:41:53;;;;;;;;;7.00;7.00;;;;;22.78;61.95;100177.78;5057741;28;45472;-69
2022/06/04 07:44:22;;;;;;;;;6.00;6.00;;;;;22.94;61.62;100166.69;5057847;28;45224;-68
2022/06/04 07:46:48;;;;;;;;;9.00;9.00;;;;;23.27;61.05;100188.91;5057833;28;45479;-68
2022/06/04 07:49:14;;;;;;;;;6.00;6.00;;;;;23.65;60.02;100188.75;5057805;28;46106;-68
2022/06/04 07:51:41;;;;;;;;;7.00;7.00;;;;;23.94;58.78;100185.22;5057468;28;45495;-68
2022/06/04 07:54:11;;;;;;;;;7.00;7.00;;;;;23.99;58.44;100192.19;5057431;28;45400;-68
2022/06/04 07:56:38;;;;;;;;;6.00;6.00;;;;;23.84;59.30;100197.97;5057597;28;45493;-69
2022/06/04 07:59:05;;;;;;;;;6.67;6.67;;;;;23.76;59.89;100202.63;5056882;28;46191;-71
2022/06/04 08:01:31;;;;;;;;;8.00;8.00;;;;;23.70;59.72;100201.03;5056620;28;45385;-68
2022/06/04 08:03:57;;;;;;;;;8.00;7.33;;;;;23.53;60.24;100200.63;5057169;28;45441;-69
2022/06/04 08:06:23;;;;;;;;;8.00;8.00;;;;;23.50;60.39;100198.94;5057535;28;45314;-68
2022/06/04 08:08:51;;;;;;;;;7.00;7.00;;;;;23.45;59.58;100200.84;5055157;28;45477;-66
2022/06/04 08:11:31;;;;;;;;;9.00;9.00;;;;;23.29;60.48;100205.75;5051723;28;45516;-67
2022/06/04 08:14:13;;;;;;;;;7.00;6.00;;;;;23.30;60.28;100180.84;5055249;28;45560;-69
2022/06/04 08:16:42;;;;;;;;;6.00;6.00;;;;;23.19;59.29;100181.13;5055562;28;45542;-67
2022/06/04 08:19:08;;;;;;;;;6.00;6.00;;;;;23.35;59.52;100188.72;5055676;28;45510;-69
2022/06/04 08:21:35;;;;;;;;;17.33;16.33;;;;;23.51;59.48;100200.66;5055645;28;45657;-67
2022/06/04 08:24:02;;;;;;;;;8.33;7.33;;;;;23.57;59.28;100199.63;5056193;28;45577;-68
2022/06/04 08:26:27;;;;;;;;;7.67;7.67;;;;;23.41;59.78;100204.53;5055918;28;45514;-67
2022/06/04 08:28:53;;;;;;;;;7.00;6.33;;;;;23.38;59.28;100199.28;5055606;28;45862;-72
2022/06/04 08:31:20;;;;;;;;;8.67;8.67;;;;;23.40;59.75;100203.66;5055016;28;45410;-67
2022/06/04 08:33:47;;;;;;;;;8.00;8.00;;;;;23.32;59.07;100205.66;5055665;28;45460;-68
2022/06/04 08:36:15;;;;;;;;;10.67;10.00;;;;;23.10;59.84;100199.16;5056382;28;45488;-68
2022/06/04 08:38:42;;;;;;;;;9.00;9.00;;;;;22.88;61.22;100212.16;5055895;28;45268;-69
2022/06/04 08:41:26;;;;;;;;;9.33;8.33;;;;;22.79;60.86;100213.28;5055777;28;45494;-70
2022/06/04 08:44:05;;;;;;;;;8.00;7.33;;;;;22.79;60.53;100206.16;5054488;28;45441;-69
2022/06/04 08:46:39;;;;;;;;;9.00;7.67;;;;;22.58;60.55;100209.34;5056988;28;45593;-69
2022/06/04 08:49:14;;;;;;;;;10.00;10.00;;;;;22.45;60.68;100214.13;5056015;28;45537;-71
2022/06/04 08:51:43;;;;;;;;;10.67;9.00;;;;;22.67;60.87;100214.47;5056212;28;45542;-74
2022/06/04 09:00:00;;;;;;;;;10.67;10.00;;;;;23.49;58.77;100212.31;5056356;28;45884;-72
2022/06/04 09:02:44;;;;;;;;;9.00;9.00;;;;;23.62;58.69;100213.72;5056136;28;45248;-70
2022/06/04 09:05:21;;;;;;;;;12.67;9.67;;;;;23.55;58.93;100213.00;5057579;28;45453;-70
2022/06/04 09:07:50;;;;;;;;;8.33;8.33;;;;;23.44;59.01;100225.78;5060296;28;45511;-71
2022/06/04 09:10:49;;;;;;;;;8.33;8.33;;;;;23.21;58.44;100227.25;5060033;28;46260;-73
2022/06/04 09:13:31;;;;;;;;;9.67;9.00;;;;;23.14;58.83;100231.03;5060271;28;45335;-69
2022/06/04 09:16:04;;;;;;;;;9.00;9.00;;;;;23.11;58.82;100225.78;5059591;28;45367;-72
2022/06/04 09:18:34;;;;;;;;;10.00;10.00;;;;;23.04;59.13;100234.88;5059787;28;45456;-69
2022/06/04 09:21:01;;;;;;;;;9.00;8.00;;;;;22.98;60.06;100227.00;5059375;28;45330;-69
2022/06/04 09:23:45;;;;;;;;;8.33;8.33;;;;;22.98;59.75;100235.84;5059100;28;45236;-69
2022/06/04 09:26:14;;;;;;;;;10.33;10.00;;;;;22.98;59.27;100235.00;5059588;28;45446;-71
2022/06/04 09:29:04;;;;;;;;;9.00;8.67;;;;;22.95;59.66;100235.06;5059785;28;45446;-69
2022/06/04 09:31:47;;;;;;;;;11.00;10.00;;;;;22.91;59.13;100238.72;5059116;28;45544;-69
2022/06/04 09:34:37;;;;;;;;;10.33;10.33;;;;;22.81;59.70;100228.28;5058952;28;45496;-74
2022/06/04 09:37:05;;;;;;;;;11.33;11.00;;;;;22.99;59.01;100239.41;5059105;28;45284;-69
2022/06/04 09:39:36;;;;;;;;;10.00;10.00;;;;;22.62;58.22;100166.66;5059245;28;45468;-70
2022/06/04 09:42:12;;;;;;;;;11.00;11.00;;;;;23.17;59.04;100244.25;5058857;28;46065;-69
2022/06/04 09:44:50;;;;;;;;;10.33;10.33;;;;;23.45;58.77;100235.50;5058819;28;45346;-68
2022/06/04 09:47:40;;;;;;;;;12.00;11.33;;;;;24.12;57.21;100239.81;5059211;28;45232;-71
2022/06/04 09:50:31;;;;;;;;;11.67;10.67;;;;;24.45;56.26;100227.16;5059296;28;45381;-68
2022/06/04 09:52:59;;;;;;;;;12.33;11.33;;;;;24.71;55.75;100229.03;5058675;28;45404;-73
2022/06/04 09:55:26;;;;;;;;;8.33;7.67;;;;;24.60;55.16;100215.16;5059007;28;45509;-69
2022/06/04 09:58:02;;;;;;;;;10.00;9.67;;;;;24.59;55.62;100256.13;5058627;28;45407;-69
2022/06/04 10:00:33;;;;;;;;;9.33;9.00;;;;;24.33;56.13;100239.16;5058890;28;45473;-69
2022/06/04 10:03:09;;;;;;;;;9.33;8.67;;;;;24.06;57.01;100235.53;5058146;28;45390;-70
2022/06/04 10:05:35;;;;;;;;;10.33;10.33;;;;;23.89;56.42;100244.03;5058925;28;45361;-69
2022/06/04 10:08:11;;;;;;;;;13.00;10.67;;;;;23.72;57.13;100254.31;5059210;28;45378;-69
2022/06/04 10:10:41;;;;;;;;;10.67;9.67;;;;;23.68;57.38;100248.19;5059026;28;45458;-68
2022/06/04 10:15:57;;;;;;;;;9.33;9.33;;;;;23.66;56.53;100249.16;5058179;28;45513;-69
2022/06/04 10:18:24;;;;;;;;;10.33;9.67;;;;;23.73;56.83;100258.72;5058790;28;45326;-68
2022/06/04 10:21:01;;;;;;;;;9.00;9.00;;;;;23.64;57.16;100254.53;5058988;28;45377;-68
2022/06/04 10:23:30;;;;;;;;;8.33;8.00;;;;;23.74;56.90;100245.34;5058240;28;46177;-71
2022/06/04 10:26:01;;;;;;;;;11.00;9.33;;;;;23.84;56.36;100232.66;5058284;28;45589;-74
2022/06/04 10:28:42;;;;;;;;;9.67;9.00;;;;;24.01;55.98;100259.69;5058511;28;45315;-69
2022/06/04 10:31:45;;;;;;;;;10.00;9.67;;;;;24.02;56.26;100245.44;5058346;28;45367;-70
2022/06/04 10:34:30;;;;;;;;;11.00;11.00;;;;;24.01;56.63;100241.03;5057917;28;45336;-69
2022/06/04 10:37:08;;;;;;;;;9.67;9.33;;;;;24.04;55.26;100252.53;5058403;28;45274;-69
2022/06/04 10:39:53;;;;;;;;;9.00;8.33;;;;;24.07;55.96;100255.09;5058508;28;45327;-69
2022/06/04 10:42:52;;;;;;;;;9.33;8.67;;;;;23.98;56.42;100248.25;5058688;28;45319;-73
2022/06/04 10:45:29;;;;;;;;;9.33;9.33;;;;;24.19;55.66;100244.94;5057290;28;46045;-70
2022/06/04 10:48:00;;;;;;;;;11.00;10.00;;;;;24.36;55.05;100252.38;5058379;28;45413;-70
2022/06/04 10:53:51;;;;;;;;;9.00;8.00;;;;;24.67;54.55;100247.88;5058653;28;45477;-69
2022/06/04 10:56:23;;;;;;;;;9.00;9.00;;;;;24.78;54.51;100251.94;5057881;28;45461;-72
2022/06/04 10:59:00;;;;;;;;;8.67;8.33;;;;;24.65;54.43;100250.63;5057944;28;45489;-70
2022/06/04 11:01:46;;;;;;;;;11.67;11.00;;;;;24.56;54.65;100250.91;5057833;28;45506;-73
2022/06/04 11:04:40;;;;;;;;;10.33;9.00;;;;;24.58;54.56;100254.41;5058156;28;45367;-72
2022/06/04 11:07:40;;;;;;;;;9.67;9.33;;;;;24.41;55.31;100250.47;5057864;28;46058;-69
2022/06/04 11:10:13;;;;;;;;;9.33;9.33;;;;;24.39;55.48;100243.41;5057525;28;45576;-74
2022/06/04 11:13:07;;;;;;;;;11.00;11.00;;;;;24.66;55.32;100247.00;5057544;28;45426;-71
2022/06/04 11:15:42;;;;;;;;;13.00;11.00;;;;;24.80;54.07;100246.56;5057905;28;45513;-70
2022/06/04 11:18:30;;;;;;;;;11.33;11.00;;;;;24.79;54.11;100248.34;5057632;28;45449;-72
2022/06/04 11:21:09;;;;;;;;;26.25;25.25;;;;;24.88;53.89;100240.94;5057690;28;45557;-71
2022/06/04 11:23:59;;;;;;;;;11.33;11.00;;;;;25.24;53.40;100238.81;5057431;28;45481;-73
2022/06/04 11:26:39;;;;;;;;;11.33;10.67;;;;;25.55;52.73;100240.41;5057854;28;45398;-69
2022/06/04 11:29:06;;;;;;;;;7.33;7.33;;;;;25.63;52.68;100229.41;5056844;28;46138;-71
2022/06/04 11:32:06;;;;;;;;;8.00;8.00;;;;;25.80;52.95;100245.69;5055908;28;45549;-71
2022/06/04 11:34:50;;;;;;;;;10.33;9.33;;;;;25.96;52.54;100238.88;5057229;28;45254;-70
2022/06/04 11:37:51;;;;;;;;;8.00;7.50;;;;;26.01;52.57;100241.34;5057664;28;45319;-69
2022/06/04 11:40:33;;;;;;;;;7.67;7.67;;;;;26.11;52.07;100241.88;5057263;28;45507;-74
2022/06/04 11:43:08;;;;;;;;;7.00;6.33;;;;;26.17;52.30;100241.63;5057621;28;45449;-69
2022/06/04 11:45:47;;;;;;;;;8.00;8.00;;;;;26.13;52.22;100230.16;5057777;28;45414;-71
2022/06/04 11:48:25;;;;;;;;;8.33;7.67;;;;;26.19;51.94;100229.06;5057722;28;45541;-73
2022/06/04 11:51:15;;;;;;;;;7.00;7.00;;;;;26.04;52.19;100232.31;5056998;28;46100;-69
2022/06/04 11:53:50;;;;;;;;;6.00;6.00;;;;;25.64;52.62;100241.84;5057119;28;45489;-69
2022/06/04 11:56:37;;;;;;;;;7.33;6.00;;;;;25.59;52.68;100237.53;5057235;28;45495;-75
2022/06/04 11:59:19;;;;;;;;;6.67;6.00;;;;;25.56;52.82;100229.63;5055835;28;45378;-71